Ende (H Hasan Aroeboesman) Airport


Codes: WATE/ENE
Name: Ende (H Hasan Aroeboesman) Airport
City: Ende-Flores Island
Country: Indonesia
Elevation: 49 ft.
Wikipedia:

Photos at Ende (H Hasan Aroeboesman) Airport


   Photos courtesy of SpottingLog. You can add your own sightings and photos by signing up for a free trial today.



No photos found.

Weather at Ende (H Hasan Aroeboesman) Airport


Time (UTC)DescriptionTempratureWindCloud coverageVisibilityPressureHumidity
16-Jun-2024 00:00Clear Sky26°C2 mph, NE0%10000m1013hPa64%
16-Jun-2024 03:00Clear Sky27°C7 mph, SE4%10000m1013hPa61%
16-Jun-2024 06:00Few Clouds29°C7 mph, SE19%10000m1012hPa63%
16-Jun-2024 09:00Scattered Clouds27°C4 mph, SE41%10000m1011hPa79%
16-Jun-2024 12:00Broken Clouds24°C2 mph, NE67%10000m1014hPa90%
16-Jun-2024 15:00Overcast Clouds24°C4 mph, NE100%10000m1014hPa90%
16-Jun-2024 18:00Overcast Clouds24°C4 mph, NE97%10000m1013hPa90%
16-Jun-2024 21:00Broken Clouds23°C4 mph, NE75%10000m1013hPa90%
17-Jun-2024 00:00Overcast Clouds25°C4 mph, E88%10000m1014hPa80%
17-Jun-2024 03:00Overcast Clouds30°C7 mph, SE100%10000m1013hPa55%
17-Jun-2024 06:00Broken Clouds30°C9 mph, SE67%10000m1010hPa58%
17-Jun-2024 09:00Broken Clouds26°C4 mph, SE84%10000m1012hPa74%
17-Jun-2024 12:00Scattered Clouds24°C2 mph, NE47%10000m1013hPa85%
17-Jun-2024 15:00Clear Sky23°C4 mph, NE0%10000m1014hPa78%
17-Jun-2024 18:00Clear Sky22°C4 mph, NE4%10000m1013hPa78%
17-Jun-2024 21:00Scattered Clouds22°C4 mph, NE36%10000m1013hPa77%
18-Jun-2024 00:00Few Clouds25°C2 mph, NE24%10000m1014hPa69%
18-Jun-2024 03:00Clear Sky28°C7 mph, S2%10000m1013hPa60%
18-Jun-2024 06:00Clear Sky28°C7 mph, S3%10000m1011hPa65%
18-Jun-2024 09:00Broken Clouds26°C4 mph, SE52%10000m1011hPa74%
18-Jun-2024 12:00Scattered Clouds23°C4 mph, E36%10000m1013hPa83%
18-Jun-2024 15:00Scattered Clouds23°C2 mph, N44%10000m1014hPa72%
18-Jun-2024 18:00Scattered Clouds22°C4 mph, N32%10000m1013hPa80%
18-Jun-2024 21:00Clear Sky22°C4 mph, N3%10000m1013hPa84%
19-Jun-2024 00:00Clear Sky25°C4 mph, NE4%10000m1014hPa70%
19-Jun-2024 03:00Clear Sky29°C7 mph, SE2%10000m1012hPa53%
19-Jun-2024 06:00Clear Sky28°C7 mph, S2%10000m1010hPa61%
19-Jun-2024 09:00Few Clouds26°C4 mph, SE20%10000m1010hPa72%
19-Jun-2024 12:00Few Clouds23°C2 mph, SE19%10000m1013hPa81%
19-Jun-2024 15:00Few Clouds22°C2 mph, N13%10000m1013hPa86%
19-Jun-2024 18:00Few Clouds22°C7 mph, N12%10000m1012hPa79%
19-Jun-2024 21:00Few Clouds22°C4 mph, NW17%10000m1012hPa77%
20-Jun-2024 00:00Few Clouds25°C2 mph, NW13%10000m1014hPa73%
20-Jun-2024 03:00Clear Sky28°C7 mph, S1%10000m1013hPa60%
20-Jun-2024 06:00Scattered Clouds28°C7 mph, S28%10000m1011hPa64%
20-Jun-2024 09:00Few Clouds26°C7 mph, SE18%10000m1011hPa77%
20-Jun-2024 12:00Few Clouds24°C7 mph, SE21%10000m1014hPa86%
20-Jun-2024 15:00Broken Clouds24°C7 mph, SE78%10000m1014hPa86%
20-Jun-2024 18:00Overcast Clouds24°C4 mph, SE95%10000m1012hPa83%
20-Jun-2024 21:00Overcast Clouds24°C7 mph, SE95%10000m1012hPa84%